Hempstead, New York
Current Conditions -  °F | °C
As of 12:51 PM on Friday 28 Nov 2014 (Local Time) from KJFK Reporting Station
Broken Clouds Broken Clouds  
Wind Chill: -2°   Ceiling: 4400
Heat Index:   Visibility: 10mi
Dew Point: -8°   Wind: 16mph
Humidity: 46%   Direction: 310°NW
Pressure: 30.16"   Gusts: 24mph
Location:  40.71°N, 73.62°W
Report Text: KJFK 281751Z 31014G21KT 10SM BKN044 03/M08 A3016 RMK AO2 SLP213 T00281078 10050 20000 58009
Loading
Personal Weather Stations






























Interactive Weather Map New forecast layout! Learn more

10-Day Weather Forecast

Advertisements
Track Severe Weather on mobile